Terminal Aerodrome Forecast
Issued by NWS

Home | Current Version | Previous Version | Text Only | Print | Product List | Glossary On
Versions: 1 2 3 4 5 6 7 8 9 10 11 12 13 14 15 16
000
FTUS41 KBGM 250540
TAFITH
TAF
KITH 250540Z 2506/2606 VRB03KT 4SM BR SKC
      TEMPO 2509/2512 1 1/2SM BR FEW003
     FM251300 VRB03KT P6SM FEW250=

USA.gov is the U.S. government's official web portal to all federal, state and local government web resources and services.